sensor_id;sensor_type;location;lat;lon;timestamp;P1;durP1;ratioP1;P2;durP2;ratioP2
57389;SDS011;43217;52.694;6.214;2023-03-23T00:01:25;9.77;;;8.77;;
57389;SDS011;43217;52.694;6.214;2023-03-23T00:03:55;10.18;;;9.13;;
57389;SDS011;43217;52.694;6.214;2023-03-23T00:06:22;11.43;;;9.00;;
57389;SDS011;43217;52.694;6.214;2023-03-23T00:08:50;9.57;;;8.57;;
57389;SDS011;43217;52.694;6.214;2023-03-23T00:11:22;11.93;;;8.73;;
57389;SDS011;43217;52.694;6.214;2023-03-23T00:13:51;8.52;;;7.68;;
57389;SDS011;43217;52.694;6.214;2023-03-23T00:16:21;9.10;;;8.20;;
57389;SDS011;43217;52.694;6.214;2023-03-23T00:18:57;9.93;;;8.32;;
57389;SDS011;43217;52.694;6.214;2023-03-23T00:21:33;9.43;;;7.43;;
57389;SDS011;43217;52.694;6.214;2023-03-23T00:24:14;8.68;;;7.00;;
57389;SDS011;43217;52.694;6.214;2023-03-23T00:26:43;9.35;;;6.72;;
57389;SDS011;43217;52.694;6.214;2023-03-23T00:29:17;7.63;;;6.55;;
57389;SDS011;43217;52.694;6.214;2023-03-23T00:31:46;8.43;;;6.72;;
57389;SDS011;43217;52.694;6.214;2023-03-23T00:34:16;7.35;;;6.43;;
57389;SDS011;43217;52.694;6.214;2023-03-23T00:36:44;8.65;;;7.22;;
57389;SDS011;43217;52.694;6.214;2023-03-23T00:39:21;7.57;;;6.15;;
57389;SDS011;43217;52.694;6.214;2023-03-23T00:41:51;8.48;;;6.75;;
57389;SDS011;43217;52.694;6.214;2023-03-23T00:44:18;8.05;;;5.63;;
57389;SDS011;43217;52.694;6.214;2023-03-23T00:46:47;6.97;;;5.30;;
57389;SDS011;43217;52.694;6.214;2023-03-23T00:49:16;8.30;;;5.90;;
57389;SDS011;43217;52.694;6.214;2023-03-23T00:51:43;8.20;;;5.65;;
57389;SDS011;43217;52.694;6.214;2023-03-23T00:54:09;6.22;;;5.60;;
57389;SDS011;43217;52.694;6.214;2023-03-23T00:56:36;7.07;;;6.00;;
57389;SDS011;43217;52.694;6.214;2023-03-23T00:59:03;7.10;;;5.70;;
57389;SDS011;43217;52.694;6.214;2023-03-23T01:01:30;8.98;;;6.00;;
57389;SDS011;43217;52.694;6.214;2023-03-23T01:03:55;8.30;;;5.80;;
57389;SDS011;43217;52.694;6.214;2023-03-23T01:06:31;6.68;;;5.53;;
57389;SDS011;43217;52.694;6.214;2023-03-23T01:09:00;9.48;;;5.90;;
57389;SDS011;43217;52.694;6.214;2023-03-23T01:13:53;6.32;;;5.72;;
57389;SDS011;43217;52.694;6.214;2023-03-23T01:16:19;7.10;;;5.75;;
57389;SDS011;43217;52.694;6.214;2023-03-23T01:18:45;7.60;;;5.82;;
57389;SDS011;43217;52.694;6.214;2023-03-23T01:21:13;8.48;;;5.53;;
57389;SDS011;43217;52.694;6.214;2023-03-23T01:23:41;6.15;;;5.00;;
57389;SDS011;43217;52.694;6.214;2023-03-23T01:26:08;8.57;;;5.55;;
57389;SDS011;43217;52.694;6.214;2023-03-23T01:28:35;7.05;;;5.30;;
57389;SDS011;43217;52.694;6.214;2023-03-23T01:31:09;6.53;;;5.20;;
57389;SDS011;43217;52.694;6.214;2023-03-23T01:33:37;5.93;;;5.10;;
57389;SDS011;43217;52.694;6.214;2023-03-23T01:36:05;5.95;;;4.90;;
57389;SDS011;43217;52.694;6.214;2023-03-23T01:38:34;7.20;;;5.13;;
57389;SDS011;43217;52.694;6.214;2023-03-23T01:41:00;6.07;;;4.90;;
57389;SDS011;43217;52.694;6.214;2023-03-23T01:43:26;5.80;;;4.07;;
57389;SDS011;43217;52.694;6.214;2023-03-23T01:45:52;7.03;;;4.55;;
57389;SDS011;43217;52.694;6.214;2023-03-23T01:48:21;7.03;;;4.40;;
57389;SDS011;43217;52.694;6.214;2023-03-23T01:53:19;6.65;;;4.93;;
57389;SDS011;43217;52.694;6.214;2023-03-23T01:55:46;5.90;;;4.70;;
57389;SDS011;43217;52.694;6.214;2023-03-23T01:58:16;6.43;;;4.50;;
57389;SDS011;43217;52.694;6.214;2023-03-23T02:00:56;5.90;;;4.40;;
57389;SDS011;43217;52.694;6.214;2023-03-23T02:03:25;7.18;;;4.32;;
57389;SDS011;43217;52.694;6.214;2023-03-23T02:05:53;5.78;;;4.20;;
57389;SDS011;43217;52.694;6.214;2023-03-23T02:11:14;7.35;;;4.72;;
57389;SDS011;43217;52.694;6.214;2023-03-23T02:13:41;5.93;;;4.60;;
57389;SDS011;43217;52.694;6.214;2023-03-23T02:18:50;7.32;;;4.63;;
57389;SDS011;43217;52.694;6.214;2023-03-23T02:27:01;6.38;;;4.65;;
57389;SDS011;43217;52.694;6.214;2023-03-23T02:35:29;5.88;;;4.50;;
57389;SDS011;43217;52.694;6.214;2023-03-23T02:38:18;5.32;;;4.05;;
57389;SDS011;43217;52.694;6.214;2023-03-23T02:40:58;5.30;;;3.90;;
57389;SDS011;43217;52.694;6.214;2023-03-23T02:43:27;9.20;;;3.90;;
57389;SDS011;43217;52.694;6.214;2023-03-23T02:45:58;5.43;;;4.20;;
57389;SDS011;43217;52.694;6.214;2023-03-23T02:48:27;5.15;;;3.92;;
57389;SDS011;43217;52.694;6.214;2023-03-23T02:50:55;8.43;;;3.97;;
57389;SDS011;43217;52.694;6.214;2023-03-23T02:53:23;6.45;;;3.97;;
57389;SDS011;43217;52.694;6.214;2023-03-23T02:55:50;5.00;;;3.58;;
57389;SDS011;43217;52.694;6.214;2023-03-23T02:58:20;4.57;;;4.13;;
57389;SDS011;43217;52.694;6.214;2023-03-23T03:00:48;7.90;;;4.20;;
57389;SDS011;43217;52.694;6.214;2023-03-23T03:03:15;4.75;;;3.72;;
57389;SDS011;43217;52.694;6.214;2023-03-23T03:05:49;4.45;;;3.40;;
57389;SDS011;43217;52.694;6.214;2023-03-23T03:08:37;6.95;;;4.25;;
57389;SDS011;43217;52.694;6.214;2023-03-23T03:11:20;6.22;;;4.55;;
57389;SDS011;43217;52.694;6.214;2023-03-23T03:14:00;5.13;;;4.53;;
57389;SDS011;43217;52.694;6.214;2023-03-23T03:16:38;5.45;;;4.22;;
57389;SDS011;43217;52.694;6.214;2023-03-23T03:21:42;5.18;;;4.53;;
57389;SDS011;43217;52.694;6.214;2023-03-23T03:24:12;6.68;;;4.53;;
57389;SDS011;43217;52.694;6.214;2023-03-23T03:26:44;5.35;;;4.40;;
57389;SDS011;43217;52.694;6.214;2023-03-23T03:29:12;6.32;;;4.60;;
57389;SDS011;43217;52.694;6.214;2023-03-23T03:31:42;7.13;;;5.00;;
57389;SDS011;43217;52.694;6.214;2023-03-23T03:34:13;6.18;;;4.45;;
57389;SDS011;43217;52.694;6.214;2023-03-23T03:36:42;7.80;;;4.43;;
57389;SDS011;43217;52.694;6.214;2023-03-23T03:39:10;6.25;;;4.78;;
57389;SDS011;43217;52.694;6.214;2023-03-23T03:41:39;4.47;;;4.10;;
57389;SDS011;43217;52.694;6.214;2023-03-23T03:44:06;5.85;;;4.75;;
57389;SDS011;43217;52.694;6.214;2023-03-23T03:46:36;5.25;;;4.63;;
57389;SDS011;43217;52.694;6.214;2023-03-23T03:49:03;8.93;;;4.88;;
57389;SDS011;43217;52.694;6.214;2023-03-23T03:51:32;5.63;;;4.90;;
57389;SDS011;43217;52.694;6.214;2023-03-23T03:53:58;6.32;;;5.03;;
57389;SDS011;43217;52.694;6.214;2023-03-23T03:56:24;5.78;;;5.10;;
57389;SDS011;43217;52.694;6.214;2023-03-23T03:58:51;5.30;;;4.82;;
57389;SDS011;43217;52.694;6.214;2023-03-23T04:01:18;6.37;;;5.27;;
57389;SDS011;43217;52.694;6.214;2023-03-23T04:03:47;6.95;;;4.82;;
57389;SDS011;43217;52.694;6.214;2023-03-23T04:06:14;5.93;;;5.20;;
57389;SDS011;43217;52.694;6.214;2023-03-23T04:08:40;5.70;;;4.53;;
57389;SDS011;43217;52.694;6.214;2023-03-23T04:11:08;9.25;;;4.95;;
57389;SDS011;43217;52.694;6.214;2023-03-23T04:13:34;5.35;;;4.38;;
57389;SDS011;43217;52.694;6.214;2023-03-23T04:16:00;5.28;;;4.40;;
57389;SDS011;43217;52.694;6.214;2023-03-23T04:18:26;7.18;;;5.30;;
57389;SDS011;43217;52.694;6.214;2023-03-23T04:20:53;6.43;;;5.10;;
57389;SDS011;43217;52.694;6.214;2023-03-23T04:23:19;6.72;;;4.82;;
57389;SDS011;43217;52.694;6.214;2023-03-23T04:25:47;7.53;;;5.85;;
57389;SDS011;43217;52.694;6.214;2023-03-23T04:28:17;6.32;;;5.22;;
57389;SDS011;43217;52.694;6.214;2023-03-23T04:30:44;6.93;;;4.68;;
57389;SDS011;43217;52.694;6.214;2023-03-23T04:33:13;5.00;;;4.50;;
57389;SDS011;43217;52.694;6.214;2023-03-23T04:35:48;8.00;;;5.30;;
57389;SDS011;43217;52.694;6.214;2023-03-23T04:38:15;9.10;;;6.35;;
57389;SDS011;43217;52.694;6.214;2023-03-23T04:40:42;8.18;;;5.65;;
57389;SDS011;43217;52.694;6.214;2023-03-23T04:43:08;9.45;;;5.63;;
57389;SDS011;43217;52.694;6.214;2023-03-23T04:45:34;12.13;;;6.55;;
57389;SDS011;43217;52.694;6.214;2023-03-23T04:48:02;6.45;;;4.20;;
57389;SDS011;43217;52.694;6.214;2023-03-23T04:50:31;8.15;;;4.90;;
57389;SDS011;43217;52.694;6.214;2023-03-23T04:52:58;8.10;;;4.57;;
57389;SDS011;43217;52.694;6.214;2023-03-23T04:55:29;6.07;;;4.03;;
57389;SDS011;43217;52.694;6.214;2023-03-23T04:57:56;6.82;;;4.55;;
57389;SDS011;43217;52.694;6.214;2023-03-23T05:00:25;9.32;;;5.00;;
57389;SDS011;43217;52.694;6.214;2023-03-23T05:02:51;9.25;;;4.75;;
57389;SDS011;43217;52.694;6.214;2023-03-23T05:05:17;8.65;;;3.83;;
57389;SDS011;43217;52.694;6.214;2023-03-23T05:07:45;9.65;;;4.22;;
57389;SDS011;43217;52.694;6.214;2023-03-23T05:10:11;8.65;;;3.95;;
57389;SDS011;43217;52.694;6.214;2023-03-23T05:12:38;10.13;;;3.90;;
57389;SDS011;43217;52.694;6.214;2023-03-23T05:15:05;7.68;;;3.90;;
57389;SDS011;43217;52.694;6.214;2023-03-23T05:17:32;8.20;;;3.50;;
57389;SDS011;43217;52.694;6.214;2023-03-23T05:20:00;10.63;;;3.57;;
57389;SDS011;43217;52.694;6.214;2023-03-23T05:22:29;8.63;;;3.40;;
57389;SDS011;43217;52.694;6.214;2023-03-23T05:24:59;9.95;;;4.07;;
57389;SDS011;43217;52.694;6.214;2023-03-23T05:27:27;11.27;;;4.22;;
57389;SDS011;43217;52.694;6.214;2023-03-23T05:29:55;9.60;;;3.67;;
57389;SDS011;43217;52.694;6.214;2023-03-23T05:34:55;4.57;;;3.13;;
57389;SDS011;43217;52.694;6.214;2023-03-23T05:37:21;6.50;;;3.40;;
57389;SDS011;43217;52.694;6.214;2023-03-23T05:39:48;4.57;;;3.50;;
57389;SDS011;43217;52.694;6.214;2023-03-23T05:42:13;5.72;;;2.92;;
57389;SDS011;43217;52.694;6.214;2023-03-23T05:44:39;6.65;;;2.80;;
57389;SDS011;43217;52.694;6.214;2023-03-23T05:47:05;5.25;;;2.33;;
57389;SDS011;43217;52.694;6.214;2023-03-23T05:49:30;7.50;;;2.85;;
57389;SDS011;43217;52.694;6.214;2023-03-23T05:51:56;5.05;;;2.28;;
57389;SDS011;43217;52.694;6.214;2023-03-23T05:54:22;6.00;;;2.30;;
57389;SDS011;43217;52.694;6.214;2023-03-23T05:56:47;5.20;;;2.40;;
57389;SDS011;43217;52.694;6.214;2023-03-23T05:59:14;5.35;;;2.60;;
57389;SDS011;43217;52.694;6.214;2023-03-23T06:01:40;7.65;;;2.83;;
57389;SDS011;43217;52.694;6.214;2023-03-23T06:04:05;6.43;;;3.30;;
57389;SDS011;43217;52.694;6.214;2023-03-23T06:06:31;6.90;;;3.58;;
57389;SDS011;43217;52.694;6.214;2023-03-23T06:08:57;6.13;;;3.53;;
57389;SDS011;43217;52.694;6.214;2023-03-23T06:11:24;4.78;;;2.90;;
57389;SDS011;43217;52.694;6.214;2023-03-23T06:13:50;8.73;;;3.72;;
57389;SDS011;43217;52.694;6.214;2023-03-23T06:16:17;9.38;;;3.33;;
57389;SDS011;43217;52.694;6.214;2023-03-23T06:18:43;8.23;;;3.67;;
57389;SDS011;43217;52.694;6.214;2023-03-23T06:21:09;9.30;;;3.72;;
57389;SDS011;43217;52.694;6.214;2023-03-23T06:23:36;8.68;;;3.33;;
57389;SDS011;43217;52.694;6.214;2023-03-23T06:26:03;11.32;;;3.47;;
57389;SDS011;43217;52.694;6.214;2023-03-23T06:28:31;10.05;;;4.10;;
57389;SDS011;43217;52.694;6.214;2023-03-23T06:31:04;9.05;;;3.90;;
57389;SDS011;43217;52.694;6.214;2023-03-23T06:33:34;7.55;;;3.35;;
57389;SDS011;43217;52.694;6.214;2023-03-23T06:36:02;10.52;;;4.00;;
57389;SDS011;43217;52.694;6.214;2023-03-23T06:38:28;8.88;;;3.45;;
57389;SDS011;43217;52.694;6.214;2023-03-23T06:40:54;9.57;;;3.92;;
57389;SDS011;43217;52.694;6.214;2023-03-23T06:43:26;12.73;;;4.07;;
57389;SDS011;43217;52.694;6.214;2023-03-23T06:45:52;9.15;;;4.70;;
57389;SDS011;43217;52.694;6.214;2023-03-23T06:48:18;11.23;;;3.77;;
57389;SDS011;43217;52.694;6.214;2023-03-23T06:50:44;11.50;;;4.45;;
57389;SDS011;43217;52.694;6.214;2023-03-23T06:53:10;12.90;;;4.22;;
57389;SDS011;43217;52.694;6.214;2023-03-23T06:55:37;11.57;;;5.07;;
57389;SDS011;43217;52.694;6.214;2023-03-23T06:58:03;11.20;;;5.43;;
57389;SDS011;43217;52.694;6.214;2023-03-23T07:00:30;9.98;;;4.63;;
57389;SDS011;43217;52.694;6.214;2023-03-23T07:02:56;15.35;;;6.40;;
57389;SDS011;43217;52.694;6.214;2023-03-23T07:05:22;13.38;;;4.97;;
57389;SDS011;43217;52.694;6.214;2023-03-23T07:07:48;11.77;;;4.55;;
57389;SDS011;43217;52.694;6.214;2023-03-23T07:10:13;11.60;;;4.85;;
57389;SDS011;43217;52.694;6.214;2023-03-23T07:12:40;12.65;;;4.82;;
57389;SDS011;43217;52.694;6.214;2023-03-23T07:15:07;12.52;;;4.10;;
57389;SDS011;43217;52.694;6.214;2023-03-23T07:17:35;11.55;;;4.50;;
57389;SDS011;43217;52.694;6.214;2023-03-23T07:20:05;11.25;;;4.95;;
57389;SDS011;43217;52.694;6.214;2023-03-23T07:22:32;10.82;;;4.15;;
57389;SDS011;43217;52.694;6.214;2023-03-23T07:24:57;10.10;;;4.13;;
57389;SDS011;43217;52.694;6.214;2023-03-23T07:27:23;11.38;;;3.90;;
57389;SDS011;43217;52.694;6.214;2023-03-23T07:29:49;17.23;;;4.00;;
57389;SDS011;43217;52.694;6.214;2023-03-23T07:32:15;12.95;;;4.10;;
57389;SDS011;43217;52.694;6.214;2023-03-23T07:34:41;12.68;;;4.03;;
57389;SDS011;43217;52.694;6.214;2023-03-23T07:37:07;12.18;;;4.80;;
57389;SDS011;43217;52.694;6.214;2023-03-23T07:39:33;14.05;;;4.28;;
57389;SDS011;43217;52.694;6.214;2023-03-23T07:42:00;10.95;;;4.28;;
57389;SDS011;43217;52.694;6.214;2023-03-23T07:44:26;15.20;;;4.65;;
57389;SDS011;43217;52.694;6.214;2023-03-23T07:46:51;13.32;;;4.38;;
57389;SDS011;43217;52.694;6.214;2023-03-23T07:49:17;13.18;;;3.75;;
57389;SDS011;43217;52.694;6.214;2023-03-23T07:51:44;14.38;;;4.22;;
57389;SDS011;43217;52.694;6.214;2023-03-23T07:54:10;12.93;;;4.47;;
57389;SDS011;43217;52.694;6.214;2023-03-23T07:56:37;16.17;;;4.75;;
57389;SDS011;43217;52.694;6.214;2023-03-23T08:01:30;16.63;;;4.72;;
57389;SDS011;43217;52.694;6.214;2023-03-23T08:03:57;17.65;;;4.82;;
57389;SDS011;43217;52.694;6.214;2023-03-23T08:06:26;15.60;;;4.70;;
57389;SDS011;43217;52.694;6.214;2023-03-23T08:08:53;14.80;;;5.00;;
57389;SDS011;43217;52.694;6.214;2023-03-23T08:11:19;12.20;;;4.30;;
57389;SDS011;43217;52.694;6.214;2023-03-23T08:13:45;14.18;;;5.25;;
57389;SDS011;43217;52.694;6.214;2023-03-23T08:16:12;15.75;;;4.68;;
57389;SDS011;43217;52.694;6.214;2023-03-23T08:18:38;15.98;;;5.70;;
57389;SDS011;43217;52.694;6.214;2023-03-23T08:21:04;16.33;;;5.55;;
57389;SDS011;43217;52.694;6.214;2023-03-23T08:23:33;19.17;;;5.70;;
57389;SDS011;43217;52.694;6.214;2023-03-23T08:26:01;18.85;;;4.93;;
57389;SDS011;43217;52.694;6.214;2023-03-23T08:28:26;14.90;;;5.45;;
57389;SDS011;43217;52.694;6.214;2023-03-23T08:30:52;14.73;;;4.80;;
57389;SDS011;43217;52.694;6.214;2023-03-23T08:33:18;15.20;;;5.95;;
57389;SDS011;43217;52.694;6.214;2023-03-23T08:35:43;15.40;;;5.10;;
57389;SDS011;43217;52.694;6.214;2023-03-23T08:38:10;16.48;;;5.45;;
57389;SDS011;43217;52.694;6.214;2023-03-23T08:40:36;15.48;;;5.10;;
57389;SDS011;43217;52.694;6.214;2023-03-23T08:43:02;13.18;;;5.20;;
57389;SDS011;43217;52.694;6.214;2023-03-23T08:45:27;13.63;;;5.63;;
57389;SDS011;43217;52.694;6.214;2023-03-23T08:47:53;11.02;;;4.60;;
57389;SDS011;43217;52.694;6.214;2023-03-23T08:50:22;13.35;;;4.70;;
57389;SDS011;43217;52.694;6.214;2023-03-23T08:52:49;13.98;;;5.10;;
57389;SDS011;43217;52.694;6.214;2023-03-23T08:55:16;14.63;;;4.80;;
57389;SDS011;43217;52.694;6.214;2023-03-23T08:57:43;13.30;;;4.60;;
57389;SDS011;43217;52.694;6.214;2023-03-23T09:00:13;16.60;;;5.32;;
57389;SDS011;43217;52.694;6.214;2023-03-23T09:02:42;14.18;;;4.72;;
57389;SDS011;43217;52.694;6.214;2023-03-23T09:05:12;12.55;;;4.50;;
57389;SDS011;43217;52.694;6.214;2023-03-23T09:07:45;17.02;;;5.55;;
57389;SDS011;43217;52.694;6.214;2023-03-23T09:10:13;18.45;;;5.40;;
57389;SDS011;43217;52.694;6.214;2023-03-23T09:15:09;13.25;;;4.53;;
57389;SDS011;43217;52.694;6.214;2023-03-23T09:17:38;13.80;;;4.50;;
57389;SDS011;43217;52.694;6.214;2023-03-23T09:20:07;14.00;;;3.97;;
57389;SDS011;43217;52.694;6.214;2023-03-23T09:22:37;10.75;;;4.40;;
57389;SDS011;43217;52.694;6.214;2023-03-23T09:25:10;16.20;;;5.07;;
57389;SDS011;43217;52.694;6.214;2023-03-23T09:27:37;12.98;;;4.00;;
57389;SDS011;43217;52.694;6.214;2023-03-23T09:30:05;11.60;;;4.38;;
57389;SDS011;43217;52.694;6.214;2023-03-23T09:32:33;12.27;;;4.70;;
57389;SDS011;43217;52.694;6.214;2023-03-23T09:35:03;12.30;;;4.07;;
57389;SDS011;43217;52.694;6.214;2023-03-23T09:37:33;10.30;;;3.50;;
57389;SDS011;43217;52.694;6.214;2023-03-23T09:40:00;9.93;;;4.05;;
57389;SDS011;43217;52.694;6.214;2023-03-23T09:42:34;12.43;;;3.72;;
57389;SDS011;43217;52.694;6.214;2023-03-23T09:45:41;11.25;;;4.13;;
57389;SDS011;43217;52.694;6.214;2023-03-23T09:51:16;9.75;;;3.92;;
57389;SDS011;43217;52.694;6.214;2023-03-23T09:53:48;11.70;;;4.32;;
57389;SDS011;43217;52.694;6.214;2023-03-23T09:56:18;10.23;;;3.38;;
57389;SDS011;43217;52.694;6.214;2023-03-23T09:58:49;7.70;;;3.17;;
57389;SDS011;43217;52.694;6.214;2023-03-23T10:01:23;6.95;;;2.80;;
57389;SDS011;43217;52.694;6.214;2023-03-23T10:03:59;10.20;;;3.30;;
57389;SDS011;43217;52.694;6.214;2023-03-23T10:06:30;7.65;;;2.70;;
57389;SDS011;43217;52.694;6.214;2023-03-23T10:08:57;8.30;;;2.80;;
57389;SDS011;43217;52.694;6.214;2023-03-23T10:14:24;10.35;;;3.33;;
57389;SDS011;43217;52.694;6.214;2023-03-23T10:22:10;7.05;;;2.60;;
57389;SDS011;43217;52.694;6.214;2023-03-23T10:24:51;9.70;;;2.42;;
57389;SDS011;43217;52.694;6.214;2023-03-23T10:30:22;8.77;;;2.92;;
57389;SDS011;43217;52.694;6.214;2023-03-23T10:32:53;9.40;;;3.20;;
57389;SDS011;43217;52.694;6.214;2023-03-23T10:35:28;8.80;;;2.55;;
57389;SDS011;43217;52.694;6.214;2023-03-23T10:38:23;9.45;;;2.78;;
57389;SDS011;43217;52.694;6.214;2023-03-23T10:41:34;8.55;;;3.08;;
57389;SDS011;43217;52.694;6.214;2023-03-23T10:43:43;11.68;;;2.90;;
57389;SDS011;43217;52.694;6.214;2023-03-23T10:46:25;10.13;;;3.22;;
57389;SDS011;43217;52.694;6.214;2023-03-23T10:49:02;10.90;;;2.78;;
57389;SDS011;43217;52.694;6.214;2023-03-23T10:51:47;8.30;;;3.08;;
57389;SDS011;43217;52.694;6.214;2023-03-23T10:54:36;9.77;;;3.30;;
57389;SDS011;43217;52.694;6.214;2023-03-23T10:57:20;6.47;;;2.67;;
57389;SDS011;43217;52.694;6.214;2023-03-23T10:59:59;10.05;;;3.40;;
57389;SDS011;43217;52.694;6.214;2023-03-23T11:02:31;8.60;;;3.10;;
57389;SDS011;43217;52.694;6.214;2023-03-23T11:05:02;10.90;;;3.38;;
57389;SDS011;43217;52.694;6.214;2023-03-23T11:07:32;7.97;;;2.95;;
57389;SDS011;43217;52.694;6.214;2023-03-23T11:10:22;9.25;;;2.90;;
57389;SDS011;43217;52.694;6.214;2023-03-23T11:12:50;9.77;;;3.17;;
57389;SDS011;43217;52.694;6.214;2023-03-23T11:17:54;8.23;;;2.80;;
57389;SDS011;43217;52.694;6.214;2023-03-23T11:20:25;6.00;;;2.65;;
57389;SDS011;43217;52.694;6.214;2023-03-23T11:22:52;8.65;;;2.58;;
57389;SDS011;43217;52.694;6.214;2023-03-23T11:25:18;8.73;;;2.45;;
57389;SDS011;43217;52.694;6.214;2023-03-23T11:27:44;8.73;;;2.70;;
57389;SDS011;43217;52.694;6.214;2023-03-23T11:30:20;8.93;;;3.05;;
57389;SDS011;43217;52.694;6.214;2023-03-23T11:32:50;9.23;;;2.78;;
57389;SDS011;43217;52.694;6.214;2023-03-23T11:35:21;10.10;;;3.20;;
57389;SDS011;43217;52.694;6.214;2023-03-23T11:37:52;9.20;;;3.00;;
57389;SDS011;43217;52.694;6.214;2023-03-23T11:40:27;7.18;;;2.53;;
57389;SDS011;43217;52.694;6.214;2023-03-23T11:43:07;9.40;;;2.60;;
57389;SDS011;43217;52.694;6.214;2023-03-23T11:45:38;10.50;;;2.75;;
57389;SDS011;43217;52.694;6.214;2023-03-23T11:51:12;9.05;;;3.03;;
57389;SDS011;43217;52.694;6.214;2023-03-23T11:53:45;9.35;;;2.42;;
57389;SDS011;43217;52.694;6.214;2023-03-23T11:56:36;8.43;;;3.22;;
57389;SDS011;43217;52.694;6.214;2023-03-23T11:59:08;7.25;;;2.80;;
57389;SDS011;43217;52.694;6.214;2023-03-23T12:25:59;11.77;;;3.08;;
57389;SDS011;43217;52.694;6.214;2023-03-23T12:28:33;10.88;;;3.00;;
57389;SDS011;43217;52.694;6.214;2023-03-23T12:39:38;11.25;;;3.13;;
57389;SDS011;43217;52.694;6.214;2023-03-23T12:47:57;8.80;;;2.80;;
57389;SDS011;43217;52.694;6.214;2023-03-23T12:50:26;8.10;;;2.38;;
57389;SDS011;43217;52.694;6.214;2023-03-23T12:53:09;8.65;;;3.03;;
57389;SDS011;43217;52.694;6.214;2023-03-23T12:55:50;8.35;;;2.28;;
57389;SDS011;43217;52.694;6.214;2023-03-23T12:58:30;9.45;;;2.85;;
57389;SDS011;43217;52.694;6.214;2023-03-23T13:01:02;11.20;;;2.65;;
57389;SDS011;43217;52.694;6.214;2023-03-23T13:11:47;9.65;;;2.80;;
57389;SDS011;43217;52.694;6.214;2023-03-23T13:14:29;12.18;;;2.35;;
57389;SDS011;43217;52.694;6.214;2023-03-23T13:33:21;13.50;;;3.20;;
57389;SDS011;43217;52.694;6.214;2023-03-23T13:35:48;16.20;;;3.58;;
57389;SDS011;43217;52.694;6.214;2023-03-23T13:38:19;11.35;;;2.50;;
57389;SDS011;43217;52.694;6.214;2023-03-23T13:40:49;6.00;;;2.33;;
57389;SDS011;43217;52.694;6.214;2023-03-23T13:43:27;10.43;;;2.75;;
57389;SDS011;43217;52.694;6.214;2023-03-23T13:45:54;7.80;;;2.25;;
57389;SDS011;43217;52.694;6.214;2023-03-23T13:48:39;10.30;;;2.47;;
57389;SDS011;43217;52.694;6.214;2023-03-23T13:51:26;11.27;;;3.15;;
57389;SDS011;43217;52.694;6.214;2023-03-23T13:59:35;8.57;;;2.55;;
57389;SDS011;43217;52.694;6.214;2023-03-23T14:02:32;9.52;;;3.55;;
57389;SDS011;43217;52.694;6.214;2023-03-23T14:05:11;7.82;;;2.72;;
57389;SDS011;43217;52.694;6.214;2023-03-23T14:07:53;12.15;;;3.20;;
57389;SDS011;43217;52.694;6.214;2023-03-23T14:10:33;8.00;;;3.00;;
57389;SDS011;43217;52.694;6.214;2023-03-23T14:13:02;9.73;;;2.97;;
57389;SDS011;43217;52.694;6.214;2023-03-23T14:15:30;13.05;;;2.95;;
57389;SDS011;43217;52.694;6.214;2023-03-23T14:18:05;10.68;;;3.10;;
57389;SDS011;43217;52.694;6.214;2023-03-23T14:20:32;9.82;;;3.65;;
57389;SDS011;43217;52.694;6.214;2023-03-23T14:23:01;9.90;;;3.80;;
57389;SDS011;43217;52.694;6.214;2023-03-23T14:25:28;10.52;;;3.30;;
57389;SDS011;43217;52.694;6.214;2023-03-23T14:27:58;14.48;;;4.10;;
57389;SDS011;43217;52.694;6.214;2023-03-23T14:30:25;9.93;;;3.50;;
57389;SDS011;43217;52.694;6.214;2023-03-23T14:32:53;12.65;;;3.92;;
57389;SDS011;43217;52.694;6.214;2023-03-23T14:35:29;8.98;;;3.20;;
57389;SDS011;43217;52.694;6.214;2023-03-23T14:37:59;10.68;;;3.22;;
57389;SDS011;43217;52.694;6.214;2023-03-23T14:40:26;11.23;;;3.17;;
57389;SDS011;43217;52.694;6.214;2023-03-23T14:42:53;9.15;;;3.03;;
57389;SDS011;43217;52.694;6.214;2023-03-23T14:45:21;7.68;;;2.80;;
57389;SDS011;43217;52.694;6.214;2023-03-23T14:47:51;6.78;;;3.08;;
57389;SDS011;43217;52.694;6.214;2023-03-23T14:50:27;8.85;;;2.70;;
57389;SDS011;43217;52.694;6.214;2023-03-23T14:53:31;8.65;;;2.78;;
57389;SDS011;43217;52.694;6.214;2023-03-23T14:56:01;10.35;;;4.15;;
57389;SDS011;43217;52.694;6.214;2023-03-23T14:58:34;5.68;;;2.60;;
57389;SDS011;43217;52.694;6.214;2023-03-23T15:01:01;8.88;;;3.13;;
57389;SDS011;43217;52.694;6.214;2023-03-23T15:03:34;10.77;;;3.08;;
57389;SDS011;43217;52.694;6.214;2023-03-23T15:06:04;10.40;;;3.15;;
57389;SDS011;43217;52.694;6.214;2023-03-23T15:08:35;11.80;;;2.88;;
57389;SDS011;43217;52.694;6.214;2023-03-23T15:11:10;11.40;;;2.95;;
57389;SDS011;43217;52.694;6.214;2023-03-23T15:16:29;9.07;;;2.90;;
57389;SDS011;43217;52.694;6.214;2023-03-23T15:18:56;7.93;;;2.95;;
57389;SDS011;43217;52.694;6.214;2023-03-23T15:21:26;12.40;;;3.22;;
57389;SDS011;43217;52.694;6.214;2023-03-23T15:24:00;13.27;;;3.60;;
57389;SDS011;43217;52.694;6.214;2023-03-23T15:26:32;7.30;;;2.58;;
57389;SDS011;43217;52.694;6.214;2023-03-23T15:29:11;10.20;;;3.15;;
57389;SDS011;43217;52.694;6.214;2023-03-23T15:31:48;9.02;;;2.95;;
57389;SDS011;43217;52.694;6.214;2023-03-23T15:34:19;10.52;;;3.00;;
57389;SDS011;43217;52.694;6.214;2023-03-23T15:36:45;8.18;;;2.88;;
57389;SDS011;43217;52.694;6.214;2023-03-23T15:39:15;8.65;;;3.05;;
57389;SDS011;43217;52.694;6.214;2023-03-23T15:41:48;10.25;;;2.95;;
57389;SDS011;43217;52.694;6.214;2023-03-23T15:44:53;8.05;;;2.90;;
57389;SDS011;43217;52.694;6.214;2023-03-23T15:47:16;9.35;;;3.28;;
57389;SDS011;43217;52.694;6.214;2023-03-23T15:49:44;10.35;;;3.15;;
57389;SDS011;43217;52.694;6.214;2023-03-23T15:52:11;11.27;;;2.92;;
57389;SDS011;43217;52.694;6.214;2023-03-23T15:54:38;8.45;;;3.13;;
57389;SDS011;43217;52.694;6.214;2023-03-23T15:57:10;9.20;;;2.88;;
57389;SDS011;43217;52.694;6.214;2023-03-23T15:59:36;10.48;;;2.88;;
57389;SDS011;43217;52.694;6.214;2023-03-23T16:02:02;10.60;;;2.70;;
57389;SDS011;43217;52.694;6.214;2023-03-23T16:04:28;11.60;;;3.15;;
57389;SDS011;43217;52.694;6.214;2023-03-23T16:06:55;9.90;;;3.45;;
57389;SDS011;43217;52.694;6.214;2023-03-23T16:09:23;11.45;;;3.13;;
57389;SDS011;43217;52.694;6.214;2023-03-23T16:11:49;9.02;;;2.83;;
57389;SDS011;43217;52.694;6.214;2023-03-23T16:14:15;12.93;;;3.55;;
57389;SDS011;43217;52.694;6.214;2023-03-23T16:16:45;9.80;;;3.60;;
57389;SDS011;43217;52.694;6.214;2023-03-23T16:19:13;12.90;;;3.65;;
57389;SDS011;43217;52.694;6.214;2023-03-23T16:21:41;7.03;;;2.80;;
57389;SDS011;43217;52.694;6.214;2023-03-23T16:24:07;8.07;;;3.00;;
57389;SDS011;43217;52.694;6.214;2023-03-23T16:26:34;7.32;;;3.33;;
57389;SDS011;43217;52.694;6.214;2023-03-23T16:29:00;7.93;;;2.80;;
57389;SDS011;43217;52.694;6.214;2023-03-23T16:31:27;6.18;;;1.70;;
57389;SDS011;43217;52.694;6.214;2023-03-23T16:33:53;4.45;;;1.60;;
57389;SDS011;43217;52.694;6.214;2023-03-23T16:36:19;4.60;;;1.67;;
57389;SDS011;43217;52.694;6.214;2023-03-23T16:41:29;4.10;;;1.52;;
57389;SDS011;43217;52.694;6.214;2023-03-23T16:43:55;3.90;;;1.45;;
57389;SDS011;43217;52.694;6.214;2023-03-23T16:46:21;2.45;;;1.40;;
57389;SDS011;43217;52.694;6.214;2023-03-23T16:48:46;5.55;;;1.67;;
57389;SDS011;43217;52.694;6.214;2023-03-23T16:51:12;4.28;;;1.80;;
57389;SDS011;43217;52.694;6.214;2023-03-23T16:53:38;4.20;;;2.10;;
57389;SDS011;43217;52.694;6.214;2023-03-23T16:56:03;4.80;;;1.75;;
57389;SDS011;43217;52.694;6.214;2023-03-23T16:58:29;5.45;;;2.08;;
57389;SDS011;43217;52.694;6.214;2023-03-23T17:00:55;3.90;;;2.03;;
57389;SDS011;43217;52.694;6.214;2023-03-23T17:03:21;5.43;;;1.92;;
57389;SDS011;43217;52.694;6.214;2023-03-23T17:05:48;6.75;;;2.13;;